Leesburg, Florida
Current Conditions -  °F | °C
As of 9:53 PM on Friday 21 Nov 2014 (Local Time) from KLEE Reporting Station
Overcast Overcast  
Wind Chill: 60°   Ceiling: 11000
Heat Index: 60°   Visibility: 10mi
Dew Point: 53°   Wind: 8mph
Humidity: 78%   Direction: 20°NNE
Pressure: 30.29"   Gusts: NA
Location:  28.81°N, 81.88°W
Report Text: KLEE 220253Z AUTO 02007KT 10SM OVC110 16/12 A3029 RMK AO2 SLP257 T01560117 50001
Loading
Personal Weather Stations






























Interactive Weather Map New forecast layout! Learn more

10-Day Weather Forecast

Advertisements
Track Severe Weather on mobile